sensor_id;sensor_type;location;lat;lon;timestamp;pressure;altitude;pressure_sealevel;temperature;humidity
23427;BME280;41148;45.420;10.952;2023-04-27T00:01:14;100760.41;;;12.69;57.73
23427;BME280;41148;45.420;10.952;2023-04-27T00:03:42;100754.31;;;12.65;58.01
23427;BME280;41148;45.420;10.952;2023-04-27T00:06:09;100752.53;;;12.64;57.34
23427;BME280;41148;45.420;10.952;2023-04-27T00:08:37;100751.56;;;12.67;57.89
23427;BME280;41148;45.420;10.952;2023-04-27T00:11:04;100749.84;;;12.64;57.60
23427;BME280;41148;45.420;10.952;2023-04-27T00:13:32;100749.03;;;12.62;57.14
23427;BME280;41148;45.420;10.952;2023-04-27T00:16:00;100749.91;;;12.63;58.05
23427;BME280;41148;45.420;10.952;2023-04-27T00:18:30;100753.47;;;12.63;58.02
23427;BME280;41148;45.420;10.952;2023-04-27T00:20:58;100741.09;;;12.60;58.29
23427;BME280;41148;45.420;10.952;2023-04-27T00:23:25;100741.13;;;12.59;57.47
23427;BME280;41148;45.420;10.952;2023-04-27T00:25:53;100744.13;;;12.50;58.11
23427;BME280;41148;45.420;10.952;2023-04-27T00:28:20;100749.78;;;12.41;58.08
23427;BME280;41148;45.420;10.952;2023-04-27T00:30:47;100743.78;;;12.34;59.39
23427;BME280;41148;45.420;10.952;2023-04-27T00:33:16;100740.34;;;12.30;59.29
23427;BME280;41148;45.420;10.952;2023-04-27T00:35:43;100743.41;;;12.20;60.32
23427;BME280;41148;45.420;10.952;2023-04-27T00:38:10;100756.00;;;12.15;61.24
23427;BME280;41148;45.420;10.952;2023-04-27T00:40:38;100747.25;;;12.11;60.19
23427;BME280;41148;45.420;10.952;2023-04-27T00:43:07;100755.16;;;12.14;59.55
23427;BME280;41148;45.420;10.952;2023-04-27T00:45:40;100750.66;;;12.15;60.35
23427;BME280;41148;45.420;10.952;2023-04-27T00:48:10;100745.50;;;12.10;60.47
23427;BME280;41148;45.420;10.952;2023-04-27T00:50:38;100742.88;;;12.09;60.48
23427;BME280;41148;45.420;10.952;2023-04-27T00:53:05;100743.84;;;12.06;60.10
23427;BME280;41148;45.420;10.952;2023-04-27T00:55:33;100748.16;;;12.10;59.04
23427;BME280;41148;45.420;10.952;2023-04-27T00:58:02;100745.63;;;12.06;58.08
23427;BME280;41148;45.420;10.952;2023-04-27T01:00:29;100747.72;;;11.96;59.38
23427;BME280;41148;45.420;10.952;2023-04-27T01:02:57;100733.97;;;11.82;59.95
23427;BME280;41148;45.420;10.952;2023-04-27T01:05:24;100733.88;;;11.85;60.72
23427;BME280;41148;45.420;10.952;2023-04-27T01:07:52;100742.31;;;11.71;61.11
23427;BME280;41148;45.420;10.952;2023-04-27T01:10:19;100745.94;;;11.68;60.66
23427;BME280;41148;45.420;10.952;2023-04-27T01:12:47;100732.84;;;11.61;61.28
23427;BME280;41148;45.420;10.952;2023-04-27T01:15:14;100721.75;;;11.45;61.19
23427;BME280;41148;45.420;10.952;2023-04-27T01:17:42;100729.25;;;11.62;62.00
23427;BME280;41148;45.420;10.952;2023-04-27T01:20:10;100733.03;;;11.55;62.42
23427;BME280;41148;45.420;10.952;2023-04-27T01:22:37;100727.19;;;11.42;63.08
23427;BME280;41148;45.420;10.952;2023-04-27T01:25:06;100711.16;;;11.14;63.40
23427;BME280;41148;45.420;10.952;2023-04-27T01:27:34;100716.38;;;11.17;64.97
23427;BME280;41148;45.420;10.952;2023-04-27T01:30:03;100731.56;;;11.15;65.20
23427;BME280;41148;45.420;10.952;2023-04-27T01:32:31;100729.31;;;11.31;65.88
23427;BME280;41148;45.420;10.952;2023-04-27T01:34:58;100717.56;;;11.36;65.45
23427;BME280;41148;45.420;10.952;2023-04-27T01:37:25;100731.72;;;11.38;63.10
23427;BME280;41148;45.420;10.952;2023-04-27T01:39:53;100735.31;;;11.39;64.85
23427;BME280;41148;45.420;10.952;2023-04-27T01:42:20;100735.66;;;11.27;65.12
23427;BME280;41148;45.420;10.952;2023-04-27T01:44:48;100733.91;;;11.26;66.11
23427;BME280;41148;45.420;10.952;2023-04-27T01:47:15;100743.53;;;11.31;66.27
23427;BME280;41148;45.420;10.952;2023-04-27T01:50:02;100740.59;;;11.11;66.31
23427;BME280;41148;45.420;10.952;2023-04-27T01:52:30;100746.69;;;11.14;66.71
23427;BME280;41148;45.420;10.952;2023-04-27T01:54:57;100743.31;;;11.08;67.30
23427;BME280;41148;45.420;10.952;2023-04-27T01:57:25;100749.06;;;10.94;66.95
23427;BME280;41148;45.420;10.952;2023-04-27T01:59:54;100759.25;;;11.11;67.10
23427;BME280;41148;45.420;10.952;2023-04-27T02:02:22;100748.53;;;11.12;66.33
23427;BME280;41148;45.420;10.952;2023-04-27T02:04:49;100755.34;;;11.23;67.15
23427;BME280;41148;45.420;10.952;2023-04-27T02:07:18;100761.91;;;11.11;67.50
23427;BME280;41148;45.420;10.952;2023-04-27T02:09:46;100754.19;;;11.31;66.86
23427;BME280;41148;45.420;10.952;2023-04-27T02:12:13;100754.53;;;11.21;67.22
23427;BME280;41148;45.420;10.952;2023-04-27T02:14:40;100763.06;;;11.02;66.88
23427;BME280;41148;45.420;10.952;2023-04-27T02:17:08;100771.22;;;10.96;67.43
23427;BME280;41148;45.420;10.952;2023-04-27T02:19:35;100790.69;;;10.98;67.19
23427;BME280;41148;45.420;10.952;2023-04-27T02:22:04;100789.91;;;10.95;67.33
23427;BME280;41148;45.420;10.952;2023-04-27T02:24:34;100791.41;;;11.05;67.64
23427;BME280;41148;45.420;10.952;2023-04-27T02:27:01;100785.72;;;10.86;67.93
23427;BME280;41148;45.420;10.952;2023-04-27T02:29:30;100787.47;;;10.87;69.10
23427;BME280;41148;45.420;10.952;2023-04-27T02:31:58;100792.69;;;10.92;70.31
23427;BME280;41148;45.420;10.952;2023-04-27T02:34:26;100781.47;;;10.79;69.03
23427;BME280;41148;45.420;10.952;2023-04-27T02:36:53;100790.22;;;10.84;68.22
23427;BME280;41148;45.420;10.952;2023-04-27T02:39:20;100799.03;;;10.86;68.18
23427;BME280;41148;45.420;10.952;2023-04-27T02:41:48;100795.34;;;10.92;67.98
23427;BME280;41148;45.420;10.952;2023-04-27T02:44:15;100799.88;;;10.88;67.41
23427;BME280;41148;45.420;10.952;2023-04-27T02:46:43;100802.63;;;10.85;68.16
23427;BME280;41148;45.420;10.952;2023-04-27T02:49:10;100816.91;;;10.82;67.80
23427;BME280;41148;45.420;10.952;2023-04-27T02:51:38;100823.03;;;10.86;68.24
23427;BME280;41148;45.420;10.952;2023-04-27T02:54:05;100809.66;;;10.87;67.87
23427;BME280;41148;45.420;10.952;2023-04-27T02:56:33;100798.25;;;10.82;68.29
23427;BME280;41148;45.420;10.952;2023-04-27T02:59:00;100800.16;;;10.77;68.45
23427;BME280;41148;45.420;10.952;2023-04-27T03:01:27;100792.16;;;10.77;67.83
23427;BME280;41148;45.420;10.952;2023-04-27T03:03:55;100790.81;;;10.63;68.45
23427;BME280;41148;45.420;10.952;2023-04-27T03:06:22;100806.69;;;10.66;68.42
23427;BME280;41148;45.420;10.952;2023-04-27T03:08:50;100809.41;;;10.64;68.73
23427;BME280;41148;45.420;10.952;2023-04-27T03:11:17;100818.59;;;10.52;69.22
23427;BME280;41148;45.420;10.952;2023-04-27T03:13:45;100822.25;;;10.48;69.62
23427;BME280;41148;45.420;10.952;2023-04-27T03:16:12;100813.56;;;10.40;70.45
23427;BME280;41148;45.420;10.952;2023-04-27T03:18:45;100811.88;;;10.38;70.85
23427;BME280;41148;45.420;10.952;2023-04-27T03:21:13;100820.81;;;10.35;71.16
23427;BME280;41148;45.420;10.952;2023-04-27T03:23:43;100824.34;;;10.36;71.11
23427;BME280;41148;45.420;10.952;2023-04-27T03:26:12;100833.47;;;10.25;71.38
23427;BME280;41148;45.420;10.952;2023-04-27T03:28:40;100827.22;;;10.26;72.40
23427;BME280;41148;45.420;10.952;2023-04-27T03:31:12;100838.81;;;10.25;72.35
23427;BME280;41148;45.420;10.952;2023-04-27T03:33:40;100831.56;;;10.30;72.62
23427;BME280;41148;45.420;10.952;2023-04-27T03:36:08;100835.22;;;10.26;73.13
23427;BME280;41148;45.420;10.952;2023-04-27T03:38:40;100831.28;;;10.41;72.68
23427;BME280;41148;45.420;10.952;2023-04-27T03:41:07;100814.25;;;10.11;74.04
23427;BME280;41148;45.420;10.952;2023-04-27T03:43:35;100818.78;;;10.08;73.34
23427;BME280;41148;45.420;10.952;2023-04-27T03:46:03;100816.94;;;10.10;73.41
23427;BME280;41148;45.420;10.952;2023-04-27T03:48:30;100819.28;;;10.25;72.81
23427;BME280;41148;45.420;10.952;2023-04-27T03:50:59;100826.19;;;10.32;73.07
23427;BME280;41148;45.420;10.952;2023-04-27T03:53:27;100819.13;;;10.31;73.12
23427;BME280;41148;45.420;10.952;2023-04-27T03:55:54;100813.09;;;10.24;73.52
23427;BME280;41148;45.420;10.952;2023-04-27T03:58:22;100823.22;;;10.07;73.94
23427;BME280;41148;45.420;10.952;2023-04-27T04:01:07;100830.41;;;10.03;75.13
23427;BME280;41148;45.420;10.952;2023-04-27T04:03:36;100827.13;;;9.92;74.68
23427;BME280;41148;45.420;10.952;2023-04-27T04:06:06;100825.53;;;9.85;74.88
23427;BME280;41148;45.420;10.952;2023-04-27T04:08:34;100821.06;;;9.86;74.79
23427;BME280;41148;45.420;10.952;2023-04-27T04:11:02;100826.19;;;9.93;75.26
23427;BME280;41148;45.420;10.952;2023-04-27T04:13:29;100828.06;;;9.90;75.13
23427;BME280;41148;45.420;10.952;2023-04-27T04:16:05;100836.91;;;9.90;75.02
23427;BME280;41148;45.420;10.952;2023-04-27T04:18:34;100830.84;;;9.85;74.90
23427;BME280;41148;45.420;10.952;2023-04-27T04:21:03;100836.06;;;9.90;75.01
23427;BME280;41148;45.420;10.952;2023-04-27T04:23:30;100845.06;;;9.83;75.57
23427;BME280;41148;45.420;10.952;2023-04-27T04:25:59;100849.53;;;9.82;75.59
23427;BME280;41148;45.420;10.952;2023-04-27T04:28:32;100844.13;;;9.87;74.25
23427;BME280;41148;45.420;10.952;2023-04-27T04:31:00;100853.09;;;9.81;74.87
23427;BME280;41148;45.420;10.952;2023-04-27T04:33:27;100857.59;;;9.79;76.16
23427;BME280;41148;45.420;10.952;2023-04-27T04:35:55;100859.34;;;9.80;75.38
23427;BME280;41148;45.420;10.952;2023-04-27T04:38:22;100861.28;;;9.72;75.81
23427;BME280;41148;45.420;10.952;2023-04-27T04:40:50;100872.78;;;9.72;75.68
23427;BME280;41148;45.420;10.952;2023-04-27T04:43:19;100865.72;;;9.71;75.39
23427;BME280;41148;45.420;10.952;2023-04-27T04:45:47;100860.03;;;9.88;74.99
23427;BME280;41148;45.420;10.952;2023-04-27T04:48:15;100856.50;;;9.88;75.08
23427;BME280;41148;45.420;10.952;2023-04-27T04:50:44;100870.81;;;9.82;75.44
23427;BME280;41148;45.420;10.952;2023-04-27T04:53:12;100869.88;;;9.85;75.82
23427;BME280;41148;45.420;10.952;2023-04-27T04:55:40;100868.56;;;10.02;76.05
23427;BME280;41148;45.420;10.952;2023-04-27T04:58:09;100881.28;;;9.90;76.94
23427;BME280;41148;45.420;10.952;2023-04-27T05:00:36;100873.44;;;9.84;77.18
23427;BME280;41148;45.420;10.952;2023-04-27T05:03:04;100893.00;;;9.81;77.63
23427;BME280;41148;45.420;10.952;2023-04-27T05:05:34;100884.69;;;9.96;77.10
23427;BME280;41148;45.420;10.952;2023-04-27T05:08:01;100893.16;;;10.15;76.10
23427;BME280;41148;45.420;10.952;2023-04-27T05:10:28;100900.97;;;10.24;75.06
23427;BME280;41148;45.420;10.952;2023-04-27T05:12:56;100897.25;;;10.30;74.77
23427;BME280;41148;45.420;10.952;2023-04-27T05:15:23;100906.97;;;10.32;74.89
23427;BME280;41148;45.420;10.952;2023-04-27T05:17:51;100908.53;;;10.41;74.96
23427;BME280;41148;45.420;10.952;2023-04-27T05:20:20;100906.00;;;10.37;75.15
23427;BME280;41148;45.420;10.952;2023-04-27T05:22:47;100908.53;;;10.41;74.20
23427;BME280;41148;45.420;10.952;2023-04-27T05:25:15;100905.06;;;10.38;74.71
23427;BME280;41148;45.420;10.952;2023-04-27T05:27:42;100910.22;;;10.45;74.58
23427;BME280;41148;45.420;10.952;2023-04-27T05:30:10;100908.53;;;10.43;75.58
23427;BME280;41148;45.420;10.952;2023-04-27T05:32:38;100899.56;;;10.45;76.18
23427;BME280;41148;45.420;10.952;2023-04-27T05:35:06;100909.84;;;10.60;75.77
23427;BME280;41148;45.420;10.952;2023-04-27T05:37:33;100907.91;;;10.67;75.59
23427;BME280;41148;45.420;10.952;2023-04-27T05:40:00;100912.13;;;10.76;75.43
23427;BME280;41148;45.420;10.952;2023-04-27T05:42:28;100916.19;;;10.92;74.58
23427;BME280;41148;45.420;10.952;2023-04-27T05:44:56;100915.22;;;10.95;73.95
23427;BME280;41148;45.420;10.952;2023-04-27T05:47:23;100921.28;;;11.01;73.58
23427;BME280;41148;45.420;10.952;2023-04-27T05:49:51;100931.72;;;11.09;72.63
23427;BME280;41148;45.420;10.952;2023-04-27T05:52:19;100926.22;;;11.15;70.95
23427;BME280;41148;45.420;10.952;2023-04-27T05:54:48;100921.56;;;11.23;69.86
23427;BME280;41148;45.420;10.952;2023-04-27T05:57:16;100924.75;;;11.36;70.21
23427;BME280;41148;45.420;10.952;2023-04-27T05:59:43;100933.28;;;11.50;70.13
23427;BME280;41148;45.420;10.952;2023-04-27T06:02:11;100937.22;;;11.68;70.59
23427;BME280;41148;45.420;10.952;2023-04-27T06:04:38;100924.50;;;11.78;70.15
23427;BME280;41148;45.420;10.952;2023-04-27T06:07:07;100933.88;;;11.92;69.25
23427;BME280;41148;45.420;10.952;2023-04-27T06:09:36;100927.38;;;12.01;69.00
23427;BME280;41148;45.420;10.952;2023-04-27T06:12:05;100933.16;;;12.17;68.99
23427;BME280;41148;45.420;10.952;2023-04-27T06:14:35;100925.75;;;12.25;66.79
23427;BME280;41148;45.420;10.952;2023-04-27T06:17:03;100935.03;;;12.41;65.50
23427;BME280;41148;45.420;10.952;2023-04-27T06:19:30;100936.88;;;12.67;62.92
23427;BME280;41148;45.420;10.952;2023-04-27T06:21:58;100932.53;;;12.63;64.83
23427;BME280;41148;45.420;10.952;2023-04-27T06:24:25;100934.50;;;12.58;64.65
23427;BME280;41148;45.420;10.952;2023-04-27T06:26:53;100930.66;;;12.67;63.43
23427;BME280;41148;45.420;10.952;2023-04-27T06:29:21;100940.13;;;12.77;63.67
23427;BME280;41148;45.420;10.952;2023-04-27T06:31:48;100956.22;;;13.02;61.93
23427;BME280;41148;45.420;10.952;2023-04-27T06:34:16;100960.22;;;13.15;61.72
23427;BME280;41148;45.420;10.952;2023-04-27T06:36:43;100940.63;;;13.14;61.91
23427;BME280;41148;45.420;10.952;2023-04-27T06:39:10;100955.75;;;13.42;60.13
23427;BME280;41148;45.420;10.952;2023-04-27T06:41:38;100951.84;;;13.51;59.47
23427;BME280;41148;45.420;10.952;2023-04-27T06:44:17;100956.31;;;13.52;59.02
23427;BME280;41148;45.420;10.952;2023-04-27T06:46:45;100945.31;;;13.59;58.22
23427;BME280;41148;45.420;10.952;2023-04-27T06:49:12;100955.19;;;13.57;59.33
23427;BME280;41148;45.420;10.952;2023-04-27T06:51:40;100973.88;;;13.84;56.84
23427;BME280;41148;45.420;10.952;2023-04-27T06:54:08;100964.16;;;14.04;55.49
23427;BME280;41148;45.420;10.952;2023-04-27T06:56:35;100961.00;;;14.17;55.01
23427;BME280;41148;45.420;10.952;2023-04-27T06:59:02;100961.44;;;14.29;54.52
23427;BME280;41148;45.420;10.952;2023-04-27T07:01:30;100968.25;;;14.37;55.64
23427;BME280;41148;45.420;10.952;2023-04-27T07:03:57;100967.34;;;14.38;54.87
23427;BME280;41148;45.420;10.952;2023-04-27T07:06:25;100963.50;;;14.68;54.61
23427;BME280;41148;45.420;10.952;2023-04-27T07:08:52;100956.81;;;14.78;52.27
23427;BME280;41148;45.420;10.952;2023-04-27T07:11:20;100955.09;;;14.76;53.01
23427;BME280;41148;45.420;10.952;2023-04-27T07:13:47;100946.00;;;14.80;49.03
23427;BME280;41148;45.420;10.952;2023-04-27T07:16:15;100967.78;;;15.14;47.95
23427;BME280;41148;45.420;10.952;2023-04-27T07:18:43;100966.94;;;15.34;46.64
23427;BME280;41148;45.420;10.952;2023-04-27T07:21:10;100958.97;;;15.33;46.89
23427;BME280;41148;45.420;10.952;2023-04-27T07:23:38;100946.63;;;15.29;47.97
23427;BME280;41148;45.420;10.952;2023-04-27T07:26:07;100957.09;;;15.55;47.45
23427;BME280;41148;45.420;10.952;2023-04-27T07:28:36;100959.91;;;15.72;47.06
23427;BME280;41148;45.420;10.952;2023-04-27T07:31:05;100978.44;;;15.79;43.97
23427;BME280;41148;45.420;10.952;2023-04-27T07:33:33;100961.63;;;15.75;43.05
23427;BME280;41148;45.420;10.952;2023-04-27T07:36:01;100958.09;;;15.93;43.15
23427;BME280;41148;45.420;10.952;2023-04-27T07:38:28;100956.66;;;16.05;45.51
23427;BME280;41148;45.420;10.952;2023-04-27T07:40:59;100969.84;;;16.10;44.33
23427;BME280;41148;45.420;10.952;2023-04-27T07:43:27;100968.88;;;16.31;42.34
23427;BME280;41148;45.420;10.952;2023-04-27T07:45:55;100957.09;;;16.15;41.17
23427;BME280;41148;45.420;10.952;2023-04-27T07:48:24;100957.91;;;16.36;37.81
23427;BME280;41148;45.420;10.952;2023-04-27T07:50:52;100960.50;;;16.37;37.76
23427;BME280;41148;45.420;10.952;2023-04-27T07:53:19;100969.94;;;16.27;37.54
23427;BME280;41148;45.420;10.952;2023-04-27T07:55:47;100972.47;;;16.49;37.70
23427;BME280;41148;45.420;10.952;2023-04-27T07:58:14;100974.81;;;16.56;35.81
23427;BME280;41148;45.420;10.952;2023-04-27T08:00:42;100977.06;;;16.66;34.27
23427;BME280;41148;45.420;10.952;2023-04-27T08:03:09;100983.53;;;16.62;34.17
23427;BME280;41148;45.420;10.952;2023-04-27T08:05:37;100979.03;;;16.62;34.25
23427;BME280;41148;45.420;10.952;2023-04-27T08:08:05;100975.59;;;16.58;34.39
23427;BME280;41148;45.420;10.952;2023-04-27T08:10:33;100977.22;;;16.63;35.69
23427;BME280;41148;45.420;10.952;2023-04-27T08:13:00;100983.69;;;16.77;35.08
23427;BME280;41148;45.420;10.952;2023-04-27T08:15:28;100983.56;;;16.80;34.13
23427;BME280;41148;45.420;10.952;2023-04-27T08:17:55;100980.00;;;16.80;34.26
23427;BME280;41148;45.420;10.952;2023-04-27T08:20:22;100978.31;;;16.77;35.79
23427;BME280;41148;45.420;10.952;2023-04-27T08:22:50;100973.53;;;17.01;34.67
23427;BME280;41148;45.420;10.952;2023-04-27T08:25:18;100986.63;;;17.26;33.77
23427;BME280;41148;45.420;10.952;2023-04-27T08:27:45;100985.00;;;17.05;34.29
23427;BME280;41148;45.420;10.952;2023-04-27T08:30:12;100984.88;;;17.42;32.72
23427;BME280;41148;45.420;10.952;2023-04-27T08:32:40;100993.94;;;17.59;32.45
23427;BME280;41148;45.420;10.952;2023-04-27T08:35:08;100993.53;;;17.49;31.46
23427;BME280;41148;45.420;10.952;2023-04-27T08:37:35;100994.31;;;17.68;32.30
23427;BME280;41148;45.420;10.952;2023-04-27T08:40:04;100996.59;;;17.93;31.79
23427;BME280;41148;45.420;10.952;2023-04-27T08:42:32;101001.19;;;18.09;31.24
23427;BME280;41148;45.420;10.952;2023-04-27T08:44:59;100998.44;;;17.93;32.31
23427;BME280;41148;45.420;10.952;2023-04-27T08:47:27;100999.75;;;18.01;33.30
23427;BME280;41148;45.420;10.952;2023-04-27T08:50:10;100999.19;;;18.12;31.91
23427;BME280;41148;45.420;10.952;2023-04-27T08:52:38;101001.09;;;18.43;32.27
23427;BME280;41148;45.420;10.952;2023-04-27T08:55:05;101004.41;;;18.64;32.01
23427;BME280;41148;45.420;10.952;2023-04-27T08:57:34;101005.03;;;18.85;30.57
23427;BME280;41148;45.420;10.952;2023-04-27T09:00:02;101005.38;;;18.79;28.60
23427;BME280;41148;45.420;10.952;2023-04-27T09:02:45;101002.94;;;18.90;29.36
23427;BME280;41148;45.420;10.952;2023-04-27T09:05:21;101006.16;;;18.81;29.44
23427;BME280;41148;45.420;10.952;2023-04-27T09:08:02;100999.44;;;18.88;30.20
23427;BME280;41148;45.420;10.952;2023-04-27T09:10:48;101013.53;;;19.09;29.22
23427;BME280;41148;45.420;10.952;2023-04-27T09:13:16;101001.91;;;19.68;29.39
23427;BME280;41148;45.420;10.952;2023-04-27T09:15:48;101003.50;;;19.57;30.56
23427;BME280;41148;45.420;10.952;2023-04-27T09:18:21;101002.78;;;18.93;29.16
23427;BME280;41148;45.420;10.952;2023-04-27T09:20:50;101003.69;;;19.24;29.60
23427;BME280;41148;45.420;10.952;2023-04-27T09:23:34;100995.88;;;19.93;28.82
23427;BME280;41148;45.420;10.952;2023-04-27T09:26:06;101000.91;;;20.14;28.21
23427;BME280;41148;45.420;10.952;2023-04-27T09:28:37;100981.19;;;19.83;30.15
23427;BME280;41148;45.420;10.952;2023-04-27T09:31:05;100995.44;;;19.71;30.34
23427;BME280;41148;45.420;10.952;2023-04-27T09:33:35;100993.66;;;19.10;30.56
23427;BME280;41148;45.420;10.952;2023-04-27T09:36:04;100985.25;;;18.69;31.69
23427;BME280;41148;45.420;10.952;2023-04-27T09:38:32;100988.81;;;18.53;32.83
23427;BME280;41148;45.420;10.952;2023-04-27T09:41:00;100976.59;;;18.62;32.94
23427;BME280;41148;45.420;10.952;2023-04-27T09:43:28;100983.78;;;18.63;32.30
23427;BME280;41148;45.420;10.952;2023-04-27T09:45:57;100981.50;;;18.71;33.23
23427;BME280;41148;45.420;10.952;2023-04-27T09:48:25;100972.50;;;18.72;33.55
23427;BME280;41148;45.420;10.952;2023-04-27T09:50:53;100988.81;;;18.53;32.87
23427;BME280;41148;45.420;10.952;2023-04-27T09:53:25;100966.78;;;18.45;33.50
23427;BME280;41148;45.420;10.952;2023-04-27T09:56:22;100972.63;;;18.69;34.03
23427;BME280;41148;45.420;10.952;2023-04-27T10:01:54;100976.78;;;18.27;34.17
23427;BME280;41148;45.420;10.952;2023-04-27T10:07:15;100967.81;;;18.27;35.98
23427;BME280;41148;45.420;10.952;2023-04-27T10:09:45;100954.59;;;18.54;35.50
23427;BME280;41148;45.420;10.952;2023-04-27T10:12:26;100963.81;;;18.34;36.21
23427;BME280;41148;45.420;10.952;2023-04-27T10:14:55;100948.16;;;18.25;35.67
23427;BME280;41148;45.420;10.952;2023-04-27T10:19:55;100953.47;;;18.26;36.40
23427;BME280;41148;45.420;10.952;2023-04-27T10:22:43;100970.50;;;18.43;37.18
23427;BME280;41148;45.420;10.952;2023-04-27T10:25:22;100958.28;;;18.69;35.11
23427;BME280;41148;45.420;10.952;2023-04-27T10:27:57;100966.41;;;18.51;33.33
23427;BME280;41148;45.420;10.952;2023-04-27T10:30:31;100951.53;;;18.60;32.17
23427;BME280;41148;45.420;10.952;2023-04-27T10:33:07;100958.53;;;18.64;32.13
23427;BME280;41148;45.420;10.952;2023-04-27T10:35:43;100953.50;;;18.74;32.84
23427;BME280;41148;45.420;10.952;2023-04-27T10:38:19;100965.91;;;18.45;31.89
23427;BME280;41148;45.420;10.952;2023-04-27T10:40:55;100951.91;;;18.54;32.06
23427;BME280;41148;45.420;10.952;2023-04-27T10:43:25;100960.53;;;18.45;31.48
23427;BME280;41148;45.420;10.952;2023-04-27T10:46:10;100942.59;;;18.44;31.88
23427;BME280;41148;45.420;10.952;2023-04-27T10:48:41;100942.94;;;18.53;32.65
23427;BME280;41148;45.420;10.952;2023-04-27T10:51:14;100950.19;;;18.69;31.35
23427;BME280;41148;45.420;10.952;2023-04-27T10:53:42;100944.16;;;18.64;32.30
23427;BME280;41148;45.420;10.952;2023-04-27T10:56:09;100945.66;;;18.69;32.88
23427;BME280;41148;45.420;10.952;2023-04-27T10:58:37;100948.69;;;18.79;32.00
23427;BME280;41148;45.420;10.952;2023-04-27T11:01:08;100935.03;;;18.66;33.53
23427;BME280;41148;45.420;10.952;2023-04-27T11:03:35;100951.19;;;18.98;30.90
23427;BME280;41148;45.420;10.952;2023-04-27T11:06:04;100931.91;;;18.74;31.81
23427;BME280;41148;45.420;10.952;2023-04-27T11:08:32;100945.13;;;18.94;31.43
23427;BME280;41148;45.420;10.952;2023-04-27T11:11:03;100937.25;;;18.90;31.40
23427;BME280;41148;45.420;10.952;2023-04-27T11:13:32;100938.41;;;18.85;32.46
23427;BME280;41148;45.420;10.952;2023-04-27T11:15:59;100935.72;;;18.85;31.98
23427;BME280;41148;45.420;10.952;2023-04-27T11:18:31;100939.88;;;18.91;32.22
23427;BME280;41148;45.420;10.952;2023-04-27T11:21:11;100934.31;;;18.78;32.77
23427;BME280;41148;45.420;10.952;2023-04-27T11:23:40;100928.19;;;18.91;33.31
23427;BME280;41148;45.420;10.952;2023-04-27T11:26:20;100932.47;;;18.95;32.77
23427;BME280;41148;45.420;10.952;2023-04-27T11:31:57;100920.84;;;18.78;34.54
23427;BME280;41148;45.420;10.952;2023-04-27T11:34:25;100935.47;;;18.74;32.08
23427;BME280;41148;45.420;10.952;2023-04-27T11:37:03;100925.13;;;18.67;33.23
23427;BME280;41148;45.420;10.952;2023-04-27T11:39:36;100920.59;;;18.67;34.19
23427;BME280;41148;45.420;10.952;2023-04-27T11:42:33;100929.38;;;18.71;34.76
23427;BME280;41148;45.420;10.952;2023-04-27T11:45:02;100925.78;;;18.70;35.33
23427;BME280;41148;45.420;10.952;2023-04-27T11:47:33;100919.38;;;18.73;35.60
23427;BME280;41148;45.420;10.952;2023-04-27T11:50:04;100930.41;;;18.84;34.51
23427;BME280;41148;45.420;10.952;2023-04-27T11:52:36;100917.88;;;18.83;35.14
23427;BME280;41148;45.420;10.952;2023-04-27T11:55:05;100921.94;;;18.90;35.72
23427;BME280;41148;45.420;10.952;2023-04-27T11:57:35;100924.56;;;18.92;36.83
23427;BME280;41148;45.420;10.952;2023-04-27T12:00:04;100927.75;;;18.98;35.86
23427;BME280;41148;45.420;10.952;2023-04-27T12:02:41;100936.19;;;19.08;35.93
23427;BME280;41148;45.420;10.952;2023-04-27T12:05:10;100930.69;;;19.09;34.63
23427;BME280;41148;45.420;10.952;2023-04-27T12:07:39;100934.66;;;19.18;34.43
23427;BME280;41148;45.420;10.952;2023-04-27T12:10:07;100918.06;;;19.10;35.30
23427;BME280;41148;45.420;10.952;2023-04-27T12:12:35;100916.50;;;18.76;35.78
23427;BME280;41148;45.420;10.952;2023-04-27T12:15:03;100923.00;;;18.87;36.80
23427;BME280;41148;45.420;10.952;2023-04-27T12:17:31;100923.06;;;19.02;37.38
23427;BME280;41148;45.420;10.952;2023-04-27T12:19:59;100923.44;;;19.10;37.25
23427;BME280;41148;45.420;10.952;2023-04-27T12:22:27;100925.47;;;19.06;37.19
23427;BME280;41148;45.420;10.952;2023-04-27T12:24:54;100915.97;;;19.15;36.15
23427;BME280;41148;45.420;10.952;2023-04-27T12:27:22;100928.03;;;19.24;35.94
23427;BME280;41148;45.420;10.952;2023-04-27T12:29:49;100920.28;;;19.03;35.67
23427;BME280;41148;45.420;10.952;2023-04-27T12:32:17;100927.06;;;18.95;36.70
23427;BME280;41148;45.420;10.952;2023-04-27T12:34:45;100922.44;;;18.97;37.36
23427;BME280;41148;45.420;10.952;2023-04-27T12:37:13;100929.88;;;18.93;39.12
23427;BME280;41148;45.420;10.952;2023-04-27T12:39:40;100927.13;;;19.09;39.34
23427;BME280;41148;45.420;10.952;2023-04-27T12:42:07;100920.06;;;19.06;39.17
23427;BME280;41148;45.420;10.952;2023-04-27T12:44:35;100923.94;;;19.02;38.68
23427;BME280;41148;45.420;10.952;2023-04-27T12:47:02;100920.75;;;19.10;38.90
23427;BME280;41148;45.420;10.952;2023-04-27T12:49:30;100922.31;;;19.14;38.54
23427;BME280;41148;45.420;10.952;2023-04-27T12:51:58;100923.91;;;19.32;37.19
23427;BME280;41148;45.420;10.952;2023-04-27T12:54:25;100919.75;;;19.27;37.57
23427;BME280;41148;45.420;10.952;2023-04-27T12:56:53;100928.25;;;19.35;36.94
23427;BME280;41148;45.420;10.952;2023-04-27T12:59:20;100926.50;;;19.64;37.02
23427;BME280;41148;45.420;10.952;2023-04-27T13:01:47;100920.53;;;19.73;36.71